sensor_id;sensor_type;location;lat;lon;timestamp;P1;durP1;ratioP1;P2;durP2;ratioP2
23494;SDS011;26107;50.832;2.950;2023-05-07T00:09:28;12.55;;;4.88;;
23494;SDS011;26107;50.832;2.950;2023-05-07T00:39:30;9.77;;;4.82;;
23494;SDS011;26107;50.832;2.950;2023-05-07T01:09:31;11.65;;;4.57;;
23494;SDS011;26107;50.832;2.950;2023-05-07T01:24:31;8.82;;;4.45;;
23494;SDS011;26107;50.832;2.950;2023-05-07T01:39:33;8.57;;;4.28;;
23494;SDS011;26107;50.832;2.950;2023-05-07T02:09:34;11.35;;;6.30;;
23494;SDS011;26107;50.832;2.950;2023-05-07T02:39:35;10.35;;;4.88;;
23494;SDS011;26107;50.832;2.950;2023-05-07T02:54:37;12.40;;;5.72;;
23494;SDS011;26107;50.832;2.950;2023-05-07T03:24:38;13.70;;;5.85;;
23494;SDS011;26107;50.832;2.950;2023-05-07T03:39:38;11.75;;;5.90;;
23494;SDS011;26107;50.832;2.950;2023-05-07T03:54:39;8.68;;;6.13;;
23494;SDS011;26107;50.832;2.950;2023-05-07T04:24:40;16.20;;;8.10;;
23494;SDS011;26107;50.832;2.950;2023-05-07T04:39:41;14.35;;;8.18;;
23494;SDS011;26107;50.832;2.950;2023-05-07T04:54:41;15.55;;;8.00;;
23494;SDS011;26107;50.832;2.950;2023-05-07T05:09:42;13.32;;;6.80;;
23494;SDS011;26107;50.832;2.950;2023-05-07T05:24:42;13.55;;;8.45;;
23494;SDS011;26107;50.832;2.950;2023-05-07T05:54:44;13.13;;;7.95;;
23494;SDS011;26107;50.832;2.950;2023-05-07T06:24:45;14.65;;;7.75;;
23494;SDS011;26107;50.832;2.950;2023-05-07T06:39:46;14.20;;;8.15;;
23494;SDS011;26107;50.832;2.950;2023-05-07T07:09:47;12.25;;;7.13;;
23494;SDS011;26107;50.832;2.950;2023-05-07T07:54:48;12.93;;;6.10;;
23494;SDS011;26107;50.832;2.950;2023-05-07T08:39:50;7.25;;;4.30;;
23494;SDS011;26107;50.832;2.950;2023-05-07T09:24:53;6.38;;;2.88;;
23494;SDS011;26107;50.832;2.950;2023-05-07T10:09:59;6.88;;;4.65;;
23494;SDS011;26107;50.832;2.950;2023-05-07T10:25:00;9.90;;;4.80;;
23494;SDS011;26107;50.832;2.950;2023-05-07T10:40:03;10.00;;;4.38;;
23494;SDS011;26107;50.832;2.950;2023-05-07T11:25:48;13.70;;;9.15;;
23494;SDS011;26107;50.832;2.950;2023-05-07T11:40:52;9.60;;;6.63;;
23494;SDS011;26107;50.832;2.950;2023-05-07T11:55:56;9.32;;;6.43;;
23494;SDS011;26107;50.832;2.950;2023-05-07T12:10:57;8.77;;;5.15;;
23494;SDS011;26107;50.832;2.950;2023-05-07T12:25:58;11.35;;;7.47;;
23494;SDS011;26107;50.832;2.950;2023-05-07T12:40:59;10.70;;;6.57;;
23494;SDS011;26107;50.832;2.950;2023-05-07T12:56:00;9.30;;;5.50;;
23494;SDS011;26107;50.832;2.950;2023-05-07T13:11:01;10.65;;;5.80;;
23494;SDS011;26107;50.832;2.950;2023-05-07T13:26:03;11.40;;;5.90;;
23494;SDS011;26107;50.832;2.950;2023-05-07T13:41:04;13.20;;;6.28;;
23494;SDS011;26107;50.832;2.950;2023-05-07T13:56:05;7.35;;;5.38;;
23494;SDS011;26107;50.832;2.950;2023-05-07T14:11:05;8.65;;;5.60;;
23494;SDS011;26107;50.832;2.950;2023-05-07T14:26:06;7.35;;;6.13;;
23494;SDS011;26107;50.832;2.950;2023-05-07T14:41:07;7.95;;;6.07;;
23494;SDS011;26107;50.832;2.950;2023-05-07T14:56:07;9.68;;;6.00;;
23494;SDS011;26107;50.832;2.950;2023-05-07T15:11:08;20.13;;;8.80;;
23494;SDS011;26107;50.832;2.950;2023-05-07T15:26:09;8.32;;;4.72;;
23494;SDS011;26107;50.832;2.950;2023-05-07T15:41:09;6.80;;;3.78;;
23494;SDS011;26107;50.832;2.950;2023-05-07T15:56:10;5.10;;;3.15;;
23494;SDS011;26107;50.832;2.950;2023-05-07T16:11:11;7.37;;;5.43;;
23494;SDS011;26107;50.832;2.950;2023-05-07T16:26:12;8.57;;;6.03;;
23494;SDS011;26107;50.832;2.950;2023-05-07T16:41:13;19.85;;;14.38;;
23494;SDS011;26107;50.832;2.950;2023-05-07T16:56:14;17.90;;;13.20;;
23494;SDS011;26107;50.832;2.950;2023-05-07T17:11:14;19.08;;;13.85;;
23494;SDS011;26107;50.832;2.950;2023-05-07T17:26:15;19.25;;;15.80;;
23494;SDS011;26107;50.832;2.950;2023-05-07T17:41:16;24.45;;;18.20;;
23494;SDS011;26107;50.832;2.950;2023-05-07T17:56:17;17.80;;;14.55;;
23494;SDS011;26107;50.832;2.950;2023-05-07T18:11:17;18.45;;;12.07;;
23494;SDS011;26107;50.832;2.950;2023-05-07T18:26:18;16.45;;;12.45;;
23494;SDS011;26107;50.832;2.950;2023-05-07T18:41:19;20.92;;;11.35;;
23494;SDS011;26107;50.832;2.950;2023-05-07T18:56:21;20.73;;;11.70;;
23494;SDS011;26107;50.832;2.950;2023-05-07T19:11:22;23.70;;;13.98;;
23494;SDS011;26107;50.832;2.950;2023-05-07T19:26:23;17.08;;;11.27;;
23494;SDS011;26107;50.832;2.950;2023-05-07T19:41:23;18.58;;;11.35;;
23494;SDS011;26107;50.832;2.950;2023-05-07T19:56:24;13.23;;;10.63;;
23494;SDS011;26107;50.832;2.950;2023-05-07T20:26:25;23.20;;;16.15;;
23494;SDS011;26107;50.832;2.950;2023-05-07T20:56:26;28.02;;;19.60;;
23494;SDS011;26107;50.832;2.950;2023-05-07T21:26:28;26.17;;;17.30;;
23494;SDS011;26107;50.832;2.950;2023-05-07T21:41:28;31.30;;;17.77;;
23494;SDS011;26107;50.832;2.950;2023-05-07T21:56:29;29.67;;;17.52;;
23494;SDS011;26107;50.832;2.950;2023-05-07T22:11:29;26.30;;;17.33;;
23494;SDS011;26107;50.832;2.950;2023-05-07T22:41:30;21.50;;;13.90;;
23494;SDS011;26107;50.832;2.950;2023-05-07T22:56:31;22.85;;;13.35;;
23494;SDS011;26107;50.832;2.950;2023-05-07T23:11:33;21.55;;;13.27;;
23494;SDS011;26107;50.832;2.950;2023-05-07T23:26:33;29.98;;;16.58;;
23494;SDS011;26107;50.832;2.950;2023-05-07T23:41:34;29.20;;;16.80;;
23494;SDS011;26107;50.832;2.950;2023-05-07T23:56:35;32.00;;;18.05;;
